sensor_id;sensor_type;location;lat;lon;timestamp;temperature;humidity
64961;SHT31;51487;52.266;10.542;2024-03-06T00:02:08;5.40;81.78
64961;SHT31;51487;52.266;10.542;2024-03-06T00:04:34;5.43;81.90
64961;SHT31;51487;52.266;10.542;2024-03-06T00:07:00;5.39;81.50
64961;SHT31;51487;52.266;10.542;2024-03-06T00:09:26;5.61;80.99
64961;SHT31;51487;52.266;10.542;2024-03-06T00:11:53;5.44;81.95
64961;SHT31;51487;52.266;10.542;2024-03-06T00:14:19;5.64;80.92
64961;SHT31;51487;52.266;10.542;2024-03-06T00:16:48;5.57;81.57
64961;SHT31;51487;52.266;10.542;2024-03-06T00:19:16;5.62;81.14
64961;SHT31;51487;52.266;10.542;2024-03-06T00:21:42;5.70;80.71
64961;SHT31;51487;52.266;10.542;2024-03-06T00:24:07;5.70;80.37
64961;SHT31;51487;52.266;10.542;2024-03-06T00:26:33;5.72;80.59
64961;SHT31;51487;52.266;10.542;2024-03-06T00:28:59;5.72;80.12
64961;SHT31;51487;52.266;10.542;2024-03-06T00:31:24;5.85;80.14
64961;SHT31;51487;52.266;10.542;2024-03-06T00:33:50;5.91;80.12
64961;SHT31;51487;52.266;10.542;2024-03-06T00:36:15;5.87;80.15
64961;SHT31;51487;52.266;10.542;2024-03-06T00:38:42;5.79;80.23
64961;SHT31;51487;52.266;10.542;2024-03-06T00:41:08;5.72;80.56
64961;SHT31;51487;52.266;10.542;2024-03-06T00:43:34;5.71;80.39
64961;SHT31;51487;52.266;10.542;2024-03-06T00:45:59;5.64;80.80
64961;SHT31;51487;52.266;10.542;2024-03-06T00:48:25;5.48;81.75
64961;SHT31;51487;52.266;10.542;2024-03-06T00:50:50;5.44;82.10
64961;SHT31;51487;52.266;10.542;2024-03-06T00:53:16;5.62;81.57
64961;SHT31;51487;52.266;10.542;2024-03-06T00:55:41;5.65;81.38
64961;SHT31;51487;52.266;10.542;2024-03-06T00:58:06;5.65;81.27
64961;SHT31;51487;52.266;10.542;2024-03-06T01:00:32;5.61;81.84
64961;SHT31;51487;52.266;10.542;2024-03-06T01:02:58;5.55;82.11
64961;SHT31;51487;52.266;10.542;2024-03-06T01:05:24;5.44;82.30
64961;SHT31;51487;52.266;10.542;2024-03-06T01:07:49;5.37;82.27
64961;SHT31;51487;52.266;10.542;2024-03-06T01:10:15;5.41;82.59
64961;SHT31;51487;52.266;10.542;2024-03-06T01:12:41;5.55;81.86
64961;SHT31;51487;52.266;10.542;2024-03-06T01:15:09;5.62;81.94
64961;SHT31;51487;52.266;10.542;2024-03-06T01:17:35;5.62;81.88
64961;SHT31;51487;52.266;10.542;2024-03-06T01:20:00;5.46;81.95
64961;SHT31;51487;52.266;10.542;2024-03-06T01:22:26;5.47;82.35
64961;SHT31;51487;52.266;10.542;2024-03-06T01:24:52;5.44;82.50
64961;SHT31;51487;52.266;10.542;2024-03-06T01:27:17;5.41;82.45
64961;SHT31;51487;52.266;10.542;2024-03-06T01:29:43;5.54;82.49
64961;SHT31;51487;52.266;10.542;2024-03-06T01:32:08;5.51;82.22
64961;SHT31;51487;52.266;10.542;2024-03-06T01:34:35;5.60;82.34
64961;SHT31;51487;52.266;10.542;2024-03-06T01:37:01;5.65;82.37
64961;SHT31;51487;52.266;10.542;2024-03-06T01:39:27;5.48;82.86
64961;SHT31;51487;52.266;10.542;2024-03-06T01:41:52;5.46;83.23
64961;SHT31;51487;52.266;10.542;2024-03-06T01:44:19;5.52;83.29
64961;SHT31;51487;52.266;10.542;2024-03-06T01:46:45;5.61;82.57
64961;SHT31;51487;52.266;10.542;2024-03-06T01:49:13;5.64;82.69
64961;SHT31;51487;52.266;10.542;2024-03-06T01:51:49;5.71;81.64
64961;SHT31;51487;52.266;10.542;2024-03-06T01:54:15;5.54;82.93
64961;SHT31;51487;52.266;10.542;2024-03-06T01:56:46;5.57;82.18
64961;SHT31;51487;52.266;10.542;2024-03-06T01:59:13;5.60;82.52
64961;SHT31;51487;52.266;10.542;2024-03-06T02:01:40;5.39;82.95
64961;SHT31;51487;52.266;10.542;2024-03-06T02:04:08;5.46;82.74
64961;SHT31;51487;52.266;10.542;2024-03-06T02:06:41;5.50;82.84
64961;SHT31;51487;52.266;10.542;2024-03-06T02:09:08;5.50;82.84
64961;SHT31;51487;52.266;10.542;2024-03-06T02:11:36;5.48;82.89
64961;SHT31;51487;52.266;10.542;2024-03-06T02:14:02;5.47;83.10
64961;SHT31;51487;52.266;10.542;2024-03-06T02:16:28;5.40;83.46
64961;SHT31;51487;52.266;10.542;2024-03-06T02:18:55;5.34;83.76
64961;SHT31;51487;52.266;10.542;2024-03-06T02:21:23;5.44;83.48
64961;SHT31;51487;52.266;10.542;2024-03-06T02:23:50;5.50;83.07
64961;SHT31;51487;52.266;10.542;2024-03-06T02:26:20;5.51;82.96
64961;SHT31;51487;52.266;10.542;2024-03-06T02:28:53;5.44;83.49
64961;SHT31;51487;52.266;10.542;2024-03-06T02:31:20;5.44;83.77
64961;SHT31;51487;52.266;10.542;2024-03-06T02:33:49;5.40;83.32
64961;SHT31;51487;52.266;10.542;2024-03-06T02:36:18;5.37;83.61
64961;SHT31;51487;52.266;10.542;2024-03-06T02:38:45;5.27;83.92
64961;SHT31;51487;52.266;10.542;2024-03-06T02:41:12;5.33;83.85
64961;SHT31;51487;52.266;10.542;2024-03-06T02:43:40;5.34;83.93
64961;SHT31;51487;52.266;10.542;2024-03-06T02:46:05;5.13;84.50
64961;SHT31;51487;52.266;10.542;2024-03-06T02:48:31;5.27;83.85
64961;SHT31;51487;52.266;10.542;2024-03-06T02:50:57;5.31;83.78
64961;SHT31;51487;52.266;10.542;2024-03-06T02:53:23;5.27;84.13
64961;SHT31;51487;52.266;10.542;2024-03-06T02:55:49;5.02;84.87
64961;SHT31;51487;52.266;10.542;2024-03-06T02:58:15;5.05;85.17
64961;SHT31;51487;52.266;10.542;2024-03-06T03:00:42;5.06;84.85
64961;SHT31;51487;52.266;10.542;2024-03-06T03:03:08;5.22;84.38
64961;SHT31;51487;52.266;10.542;2024-03-06T03:05:35;5.27;83.93
64961;SHT31;51487;52.266;10.542;2024-03-06T03:08:00;5.24;84.25
64961;SHT31;51487;52.266;10.542;2024-03-06T03:10:26;5.15;84.42
64961;SHT31;51487;52.266;10.542;2024-03-06T03:12:52;5.19;84.48
64961;SHT31;51487;52.266;10.542;2024-03-06T03:15:19;5.13;84.11
64961;SHT31;51487;52.266;10.542;2024-03-06T03:17:46;5.15;84.31
64961;SHT31;51487;52.266;10.542;2024-03-06T03:20:11;5.05;84.98
64961;SHT31;51487;52.266;10.542;2024-03-06T03:22:40;5.18;84.34
64961;SHT31;51487;52.266;10.542;2024-03-06T03:25:13;5.24;83.75
64961;SHT31;51487;52.266;10.542;2024-03-06T03:27:40;5.06;84.53
64961;SHT31;51487;52.266;10.542;2024-03-06T03:30:13;5.19;84.04
64961;SHT31;51487;52.266;10.542;2024-03-06T03:32:39;5.05;84.50
64961;SHT31;51487;52.266;10.542;2024-03-06T03:35:06;4.97;84.76
64961;SHT31;51487;52.266;10.542;2024-03-06T03:37:32;4.86;84.73
64961;SHT31;51487;52.266;10.542;2024-03-06T03:39:57;4.96;84.98
64961;SHT31;51487;52.266;10.542;2024-03-06T03:42:23;5.05;84.27
64961;SHT31;51487;52.266;10.542;2024-03-06T03:44:48;4.86;85.16
64961;SHT31;51487;52.266;10.542;2024-03-06T03:47:14;4.95;84.85
64961;SHT31;51487;52.266;10.542;2024-03-06T03:49:39;4.92;84.93
64961;SHT31;51487;52.266;10.542;2024-03-06T03:52:05;4.97;84.98
64961;SHT31;51487;52.266;10.542;2024-03-06T03:54:31;5.05;84.58
64961;SHT31;51487;52.266;10.542;2024-03-06T03:56:56;5.13;84.41
64961;SHT31;51487;52.266;10.542;2024-03-06T03:59:24;5.13;84.30
64961;SHT31;51487;52.266;10.542;2024-03-06T04:01:50;5.12;84.20
64961;SHT31;51487;52.266;10.542;2024-03-06T04:04:16;5.02;84.84
64961;SHT31;51487;52.266;10.542;2024-03-06T04:06:41;4.91;85.27
64961;SHT31;51487;52.266;10.542;2024-03-06T04:09:07;4.86;85.69
64961;SHT31;51487;52.266;10.542;2024-03-06T04:11:36;4.88;86.09
64961;SHT31;51487;52.266;10.542;2024-03-06T04:14:04;4.92;85.92
64961;SHT31;51487;52.266;10.542;2024-03-06T04:16:29;4.78;85.66
64961;SHT31;51487;52.266;10.542;2024-03-06T04:18:55;4.92;85.92
64961;SHT31;51487;52.266;10.542;2024-03-06T04:21:20;4.95;85.60
64961;SHT31;51487;52.266;10.542;2024-03-06T04:23:47;5.00;85.54
64961;SHT31;51487;52.266;10.542;2024-03-06T04:26:13;4.95;85.22
64961;SHT31;51487;52.266;10.542;2024-03-06T04:28:39;4.92;85.44
64961;SHT31;51487;52.266;10.542;2024-03-06T04:31:05;4.95;85.51
64961;SHT31;51487;52.266;10.542;2024-03-06T04:33:30;4.91;85.56
64961;SHT31;51487;52.266;10.542;2024-03-06T04:35:56;4.91;85.49
64961;SHT31;51487;52.266;10.542;2024-03-06T04:38:22;4.82;85.20
64961;SHT31;51487;52.266;10.542;2024-03-06T04:40:47;4.85;85.26
64961;SHT31;51487;52.266;10.542;2024-03-06T04:43:13;4.85;84.79
64961;SHT31;51487;52.266;10.542;2024-03-06T04:45:38;4.85;85.25
64961;SHT31;51487;52.266;10.542;2024-03-06T04:48:05;4.79;85.39
64961;SHT31;51487;52.266;10.542;2024-03-06T04:50:30;4.71;85.91
64961;SHT31;51487;52.266;10.542;2024-03-06T04:52:56;4.71;84.96
64961;SHT31;51487;52.266;10.542;2024-03-06T04:55:21;4.64;85.38
64961;SHT31;51487;52.266;10.542;2024-03-06T04:57:48;4.65;85.69
64961;SHT31;51487;52.266;10.542;2024-03-06T05:00:15;4.64;85.53
64961;SHT31;51487;52.266;10.542;2024-03-06T05:02:41;4.47;86.42
64961;SHT31;51487;52.266;10.542;2024-03-06T05:05:08;4.67;86.30
64961;SHT31;51487;52.266;10.542;2024-03-06T05:07:33;4.72;85.87
64961;SHT31;51487;52.266;10.542;2024-03-06T05:10:00;4.68;86.02
64961;SHT31;51487;52.266;10.542;2024-03-06T05:12:28;4.61;86.05
64961;SHT31;51487;52.266;10.542;2024-03-06T05:14:55;4.64;86.30
64961;SHT31;51487;52.266;10.542;2024-03-06T05:17:21;4.58;86.43
64961;SHT31;51487;52.266;10.542;2024-03-06T05:19:47;4.51;86.70
64961;SHT31;51487;52.266;10.542;2024-03-06T05:22:15;4.54;86.69
64961;SHT31;51487;52.266;10.542;2024-03-06T05:24:42;4.78;85.83
64961;SHT31;51487;52.266;10.542;2024-03-06T05:27:08;4.75;85.94
64961;SHT31;51487;52.266;10.542;2024-03-06T05:29:36;4.75;85.80
64961;SHT31;51487;52.266;10.542;2024-03-06T05:32:02;4.65;86.40
64961;SHT31;51487;52.266;10.542;2024-03-06T05:34:29;4.69;86.35
64961;SHT31;51487;52.266;10.542;2024-03-06T05:36:58;4.73;85.91
64961;SHT31;51487;52.266;10.542;2024-03-06T05:39:23;4.73;85.74
64961;SHT31;51487;52.266;10.542;2024-03-06T05:41:49;4.72;86.07
64961;SHT31;51487;52.266;10.542;2024-03-06T05:44:15;4.60;86.36
64961;SHT31;51487;52.266;10.542;2024-03-06T05:46:40;4.57;86.36
64961;SHT31;51487;52.266;10.542;2024-03-06T05:49:06;4.71;86.01
64961;SHT31;51487;52.266;10.542;2024-03-06T05:51:31;4.48;86.76
64961;SHT31;51487;52.266;10.542;2024-03-06T05:53:57;4.38;86.85
64961;SHT31;51487;52.266;10.542;2024-03-06T05:56:22;4.45;87.12
64961;SHT31;51487;52.266;10.542;2024-03-06T05:58:48;4.37;87.34
64961;SHT31;51487;52.266;10.542;2024-03-06T06:01:17;4.40;86.86
64961;SHT31;51487;52.266;10.542;2024-03-06T06:03:48;4.71;86.75
64961;SHT31;51487;52.266;10.542;2024-03-06T06:06:17;4.65;86.66
64961;SHT31;51487;52.266;10.542;2024-03-06T06:08:45;4.83;86.26
64961;SHT31;51487;52.266;10.542;2024-03-06T06:11:11;4.89;85.52
64961;SHT31;51487;52.266;10.542;2024-03-06T06:13:37;4.81;85.64
64961;SHT31;51487;52.266;10.542;2024-03-06T06:16:05;4.89;85.63
64961;SHT31;51487;52.266;10.542;2024-03-06T06:18:31;4.93;85.38
64961;SHT31;51487;52.266;10.542;2024-03-06T06:20:58;4.73;85.41
64961;SHT31;51487;52.266;10.542;2024-03-06T06:23:24;4.71;85.76
64961;SHT31;51487;52.266;10.542;2024-03-06T06:25:49;4.71;85.56
64961;SHT31;51487;52.266;10.542;2024-03-06T06:28:15;4.71;85.75
64961;SHT31;51487;52.266;10.542;2024-03-06T06:30:40;4.62;85.84
64961;SHT31;51487;52.266;10.542;2024-03-06T06:33:07;4.64;85.56
64961;SHT31;51487;52.266;10.542;2024-03-06T06:35:34;4.52;85.82
64961;SHT31;51487;52.266;10.542;2024-03-06T06:38:03;4.54;86.27
64961;SHT31;51487;52.266;10.542;2024-03-06T06:40:30;4.61;86.47
64961;SHT31;51487;52.266;10.542;2024-03-06T06:42:56;4.69;85.67
64961;SHT31;51487;52.266;10.542;2024-03-06T06:45:21;4.62;86.14
64961;SHT31;51487;52.266;10.542;2024-03-06T06:47:49;4.60;86.02
64961;SHT31;51487;52.266;10.542;2024-03-06T06:50:15;4.58;86.52
64961;SHT31;51487;52.266;10.542;2024-03-06T06:52:43;4.58;86.09
64961;SHT31;51487;52.266;10.542;2024-03-06T06:55:09;4.71;85.82
64961;SHT31;51487;52.266;10.542;2024-03-06T06:57:37;4.79;85.71
64961;SHT31;51487;52.266;10.542;2024-03-06T07:00:04;4.76;85.43
64961;SHT31;51487;52.266;10.542;2024-03-06T07:02:39;4.62;86.53
64961;SHT31;51487;52.266;10.542;2024-03-06T07:05:07;4.64;86.32
64961;SHT31;51487;52.266;10.542;2024-03-06T07:07:34;4.44;86.54
64961;SHT31;51487;52.266;10.542;2024-03-06T07:10:02;4.76;85.96
64961;SHT31;51487;52.266;10.542;2024-03-06T07:12:28;4.75;85.98
64961;SHT31;51487;52.266;10.542;2024-03-06T07:14:53;4.73;86.26
64961;SHT31;51487;52.266;10.542;2024-03-06T07:17:19;4.83;86.38
64961;SHT31;51487;52.266;10.542;2024-03-06T07:19:44;4.86;86.19
64961;SHT31;51487;52.266;10.542;2024-03-06T07:22:10;4.93;85.97
64961;SHT31;51487;52.266;10.542;2024-03-06T07:24:36;5.09;85.79
64961;SHT31;51487;52.266;10.542;2024-03-06T07:27:02;5.08;85.76
64961;SHT31;51487;52.266;10.542;2024-03-06T07:29:28;5.08;85.67
64961;SHT31;51487;52.266;10.542;2024-03-06T07:31:54;5.06;85.83
64961;SHT31;51487;52.266;10.542;2024-03-06T07:34:20;5.40;85.03
64961;SHT31;51487;52.266;10.542;2024-03-06T07:36:49;5.36;85.13
64961;SHT31;51487;52.266;10.542;2024-03-06T07:39:19;5.26;85.57
64961;SHT31;51487;52.266;10.542;2024-03-06T07:41:45;5.34;85.78
64961;SHT31;51487;52.266;10.542;2024-03-06T07:44:10;5.47;84.97
64961;SHT31;51487;52.266;10.542;2024-03-06T07:46:36;5.41;84.78
64961;SHT31;51487;52.266;10.542;2024-03-06T07:49:02;5.24;85.69
64961;SHT31;51487;52.266;10.542;2024-03-06T07:51:34;5.51;85.14
64961;SHT31;51487;52.266;10.542;2024-03-06T07:54:01;5.55;84.85
64961;SHT31;51487;52.266;10.542;2024-03-06T07:56:29;5.85;84.62
64961;SHT31;51487;52.266;10.542;2024-03-06T07:58:54;5.74;84.21
64961;SHT31;51487;52.266;10.542;2024-03-06T08:01:21;5.91;83.75
64961;SHT31;51487;52.266;10.542;2024-03-06T08:03:47;5.95;84.22
64961;SHT31;51487;52.266;10.542;2024-03-06T08:06:13;5.84;84.57
64961;SHT31;51487;52.266;10.542;2024-03-06T08:08:42;6.03;83.41
64961;SHT31;51487;52.266;10.542;2024-03-06T08:11:13;6.06;84.13
64961;SHT31;51487;52.266;10.542;2024-03-06T08:13:39;6.29;83.06
64961;SHT31;51487;52.266;10.542;2024-03-06T08:16:06;6.34;83.16
64961;SHT31;51487;52.266;10.542;2024-03-06T08:18:33;6.51;82.40
64961;SHT31;51487;52.266;10.542;2024-03-06T08:21:00;6.44;82.66
64961;SHT31;51487;52.266;10.542;2024-03-06T08:23:26;6.58;82.14
64961;SHT31;51487;52.266;10.542;2024-03-06T08:25:52;6.67;82.39
64961;SHT31;51487;52.266;10.542;2024-03-06T08:28:20;6.49;82.18
64961;SHT31;51487;52.266;10.542;2024-03-06T08:30:46;6.70;82.28
64961;SHT31;51487;52.266;10.542;2024-03-06T08:33:12;6.81;81.65
64961;SHT31;51487;52.266;10.542;2024-03-06T08:35:38;7.01;81.34
64961;SHT31;51487;52.266;10.542;2024-03-06T08:38:04;7.04;80.30
64961;SHT31;51487;52.266;10.542;2024-03-06T08:40:30;7.26;80.52
64961;SHT31;51487;52.266;10.542;2024-03-06T08:42:55;7.28;80.91
64961;SHT31;51487;52.266;10.542;2024-03-06T08:45:21;7.25;80.59
64961;SHT31;51487;52.266;10.542;2024-03-06T08:47:48;7.47;80.33
64961;SHT31;51487;52.266;10.542;2024-03-06T08:50:14;7.65;80.09
64961;SHT31;51487;52.266;10.542;2024-03-06T08:52:40;7.76;79.15
64961;SHT31;51487;52.266;10.542;2024-03-06T08:55:09;7.87;79.16
64961;SHT31;51487;52.266;10.542;2024-03-06T08:57:36;7.81;78.98
64961;SHT31;51487;52.266;10.542;2024-03-06T09:00:04;7.91;79.38
64961;SHT31;51487;52.266;10.542;2024-03-06T09:02:30;7.91;78.91
64961;SHT31;51487;52.266;10.542;2024-03-06T09:04:56;7.95;79.76
64961;SHT31;51487;52.266;10.542;2024-03-06T09:07:22;7.88;79.35
64961;SHT31;51487;52.266;10.542;2024-03-06T09:09:49;8.07;78.56
64961;SHT31;51487;52.266;10.542;2024-03-06T09:12:17;8.26;77.75
64961;SHT31;51487;52.266;10.542;2024-03-06T09:14:43;8.28;78.35
64961;SHT31;51487;52.266;10.542;2024-03-06T09:17:10;8.31;78.11
64961;SHT31;51487;52.266;10.542;2024-03-06T09:19:38;8.22;78.18
64961;SHT31;51487;52.266;10.542;2024-03-06T09:22:04;8.18;78.23
64961;SHT31;51487;52.266;10.542;2024-03-06T09:24:29;8.21;79.18
64961;SHT31;51487;52.266;10.542;2024-03-06T09:26:55;8.15;78.83
64961;SHT31;51487;52.266;10.542;2024-03-06T09:29:21;8.11;79.15
64961;SHT31;51487;52.266;10.542;2024-03-06T09:31:47;8.18;78.63
64961;SHT31;51487;52.266;10.542;2024-03-06T09:34:14;8.20;78.71
64961;SHT31;51487;52.266;10.542;2024-03-06T09:36:44;8.15;78.84
64961;SHT31;51487;52.266;10.542;2024-03-06T09:39:15;8.12;78.41
64961;SHT31;51487;52.266;10.542;2024-03-06T09:41:46;8.08;78.96
64961;SHT31;51487;52.266;10.542;2024-03-06T09:44:13;8.18;78.65
64961;SHT31;51487;52.266;10.542;2024-03-06T09:46:47;8.08;78.43
64961;SHT31;51487;52.266;10.542;2024-03-06T09:49:15;8.36;77.91
64961;SHT31;51487;52.266;10.542;2024-03-06T09:51:47;8.36;78.48
64961;SHT31;51487;52.266;10.542;2024-03-06T09:54:16;8.46;78.35
64961;SHT31;51487;52.266;10.542;2024-03-06T09:56:43;8.53;78.50
64961;SHT31;51487;52.266;10.542;2024-03-06T09:59:11;8.63;77.70
64961;SHT31;51487;52.266;10.542;2024-03-06T10:01:47;8.49;77.69
64961;SHT31;51487;52.266;10.542;2024-03-06T10:04:28;8.59;77.63
64961;SHT31;51487;52.266;10.542;2024-03-06T10:06:56;8.81;76.28
64961;SHT31;51487;52.266;10.542;2024-03-06T10:09:22;8.67;74.62
64961;SHT31;51487;52.266;10.542;2024-03-06T10:11:49;8.83;76.55
64961;SHT31;51487;52.266;10.542;2024-03-06T10:14:15;8.63;76.44
64961;SHT31;51487;52.266;10.542;2024-03-06T10:17:00;8.49;77.27
64961;SHT31;51487;52.266;10.542;2024-03-06T10:19:28;8.44;76.91
64961;SHT31;51487;52.266;10.542;2024-03-06T10:21:56;8.34;77.17
64961;SHT31;51487;52.266;10.542;2024-03-06T10:24:29;8.46;76.46
64961;SHT31;51487;52.266;10.542;2024-03-06T10:26:57;8.44;76.35
64961;SHT31;51487;52.266;10.542;2024-03-06T10:29:26;8.34;76.45
64961;SHT31;51487;52.266;10.542;2024-03-06T10:31:55;8.24;77.14
64961;SHT31;51487;52.266;10.542;2024-03-06T10:34:27;8.32;76.87
64961;SHT31;51487;52.266;10.542;2024-03-06T10:36:59;8.44;76.24
64961;SHT31;51487;52.266;10.542;2024-03-06T10:39:25;8.31;76.86
64961;SHT31;51487;52.266;10.542;2024-03-06T10:41:53;8.44;76.84
64961;SHT31;51487;52.266;10.542;2024-03-06T10:44:25;8.60;76.07
64961;SHT31;51487;52.266;10.542;2024-03-06T10:47:03;8.66;76.26
64961;SHT31;51487;52.266;10.542;2024-03-06T10:49:30;8.67;75.60
64961;SHT31;51487;52.266;10.542;2024-03-06T10:52:04;8.76;75.85
64961;SHT31;51487;52.266;10.542;2024-03-06T10:54:34;8.87;75.30
64961;SHT31;51487;52.266;10.542;2024-03-06T10:57:02;9.10;74.74
64961;SHT31;51487;52.266;10.542;2024-03-06T10:59:29;9.01;74.97
64961;SHT31;51487;52.266;10.542;2024-03-06T11:01:59;9.11;75.07
64961;SHT31;51487;52.266;10.542;2024-03-06T11:04:31;9.15;74.64
64961;SHT31;51487;52.266;10.542;2024-03-06T11:07:02;9.14;74.24
64961;SHT31;51487;52.266;10.542;2024-03-06T11:12:00;9.07;74.46
64961;SHT31;51487;52.266;10.542;2024-03-06T11:14:27;9.21;75.02
64961;SHT31;51487;52.266;10.542;2024-03-06T11:17:09;9.00;74.50
64961;SHT31;51487;52.266;10.542;2024-03-06T11:28:17;9.06;74.70
64961;SHT31;51487;52.266;10.542;2024-03-06T11:31:04;9.11;75.00
64961;SHT31;51487;52.266;10.542;2024-03-06T11:33:53;9.24;74.67
64961;SHT31;51487;52.266;10.542;2024-03-06T11:36:28;9.34;74.59
64961;SHT31;51487;52.266;10.542;2024-03-06T11:41:30;9.45;72.94
64961;SHT31;51487;52.266;10.542;2024-03-06T11:43:59;9.59;72.48
64961;SHT31;51487;52.266;10.542;2024-03-06T11:46:44;9.34;71.74
64961;SHT31;51487;52.266;10.542;2024-03-06T11:49:19;9.41;71.17
64961;SHT31;51487;52.266;10.542;2024-03-06T11:51:50;9.28;71.66
64961;SHT31;51487;52.266;10.542;2024-03-06T11:54:17;9.15;71.64
64961;SHT31;51487;52.266;10.542;2024-03-06T11:56:50;9.14;72.16
64961;SHT31;51487;52.266;10.542;2024-03-06T11:59:21;9.15;72.62
64961;SHT31;51487;52.266;10.542;2024-03-06T12:01:46;9.06;71.71
64961;SHT31;51487;52.266;10.542;2024-03-06T12:04:13;8.93;72.47
64961;SHT31;51487;52.266;10.542;2024-03-06T12:06:39;8.93;72.12
64961;SHT31;51487;52.266;10.542;2024-03-06T12:09:05;8.87;72.19
64961;SHT31;51487;52.266;10.542;2024-03-06T12:11:30;8.70;72.94
64961;SHT31;51487;52.266;10.542;2024-03-06T12:13:57;8.69;73.98
64961;SHT31;51487;52.266;10.542;2024-03-06T12:16:23;8.69;73.12
64961;SHT31;51487;52.266;10.542;2024-03-06T12:18:58;8.62;73.39
64961;SHT31;51487;52.266;10.542;2024-03-06T12:21:34;8.65;72.80
64961;SHT31;51487;52.266;10.542;2024-03-06T12:24:08;8.55;73.49
64961;SHT31;51487;52.266;10.542;2024-03-06T12:26:34;8.57;73.32
64961;SHT31;51487;52.266;10.542;2024-03-06T12:29:05;8.56;73.07
64961;SHT31;51487;52.266;10.542;2024-03-06T12:31:31;8.65;73.06
64961;SHT31;51487;52.266;10.542;2024-03-06T12:33:57;8.67;73.28
64961;SHT31;51487;52.266;10.542;2024-03-06T12:36:28;8.62;73.70
64961;SHT31;51487;52.266;10.542;2024-03-06T12:38:56;8.72;72.66
64961;SHT31;51487;52.266;10.542;2024-03-06T12:41:22;8.87;72.77
64961;SHT31;51487;52.266;10.542;2024-03-06T12:43:47;8.70;72.62
64961;SHT31;51487;52.266;10.542;2024-03-06T12:46:14;8.76;72.35
64961;SHT31;51487;52.266;10.542;2024-03-06T12:48:40;8.81;72.45
64961;SHT31;51487;52.266;10.542;2024-03-06T12:51:05;8.99;71.68
64961;SHT31;51487;52.266;10.542;2024-03-06T12:53:31;9.00;71.55
64961;SHT31;51487;52.266;10.542;2024-03-06T12:55:58;9.04;72.15
64961;SHT31;51487;52.266;10.542;2024-03-06T12:58:24;8.91;71.89
64961;SHT31;51487;52.266;10.542;2024-03-06T13:00:49;8.86;72.36
64961;SHT31;51487;52.266;10.542;2024-03-06T13:03:17;8.93;72.50
64961;SHT31;51487;52.266;10.542;2024-03-06T13:05:43;9.06;71.62
64961;SHT31;51487;52.266;10.542;2024-03-06T13:08:08;9.15;71.03
64961;SHT31;51487;52.266;10.542;2024-03-06T13:10:34;9.21;71.52
64961;SHT31;51487;52.266;10.542;2024-03-06T13:13:01;9.32;71.38
64961;SHT31;51487;52.266;10.542;2024-03-06T13:15:26;9.30;70.73
64961;SHT31;51487;52.266;10.542;2024-03-06T13:17:52;9.41;70.12
64961;SHT31;51487;52.266;10.542;2024-03-06T13:20:17;9.42;69.88
64961;SHT31;51487;52.266;10.542;2024-03-06T13:22:43;9.36;70.21
64961;SHT31;51487;52.266;10.542;2024-03-06T13:25:09;9.41;70.09
64961;SHT31;51487;52.266;10.542;2024-03-06T13:27:35;9.41;70.31
64961;SHT31;51487;52.266;10.542;2024-03-06T13:30:00;9.42;70.19
64961;SHT31;51487;52.266;10.542;2024-03-06T13:32:26;9.51;70.87
64961;SHT31;51487;52.266;10.542;2024-03-06T13:34:52;9.54;70.38
64961;SHT31;51487;52.266;10.542;2024-03-06T13:37:18;9.69;70.08
64961;SHT31;51487;52.266;10.542;2024-03-06T13:39:43;9.78;69.62
64961;SHT31;51487;52.266;10.542;2024-03-06T13:42:09;9.63;70.24
64961;SHT31;51487;52.266;10.542;2024-03-06T13:44:36;9.69;70.42
64961;SHT31;51487;52.266;10.542;2024-03-06T13:47:02;9.86;69.94
64961;SHT31;51487;52.266;10.542;2024-03-06T13:49:40;9.85;70.44
64961;SHT31;51487;52.266;10.542;2024-03-06T13:52:07;9.66;70.19
64961;SHT31;51487;52.266;10.542;2024-03-06T13:54:34;9.73;70.51
64961;SHT31;51487;52.266;10.542;2024-03-06T13:57:00;9.65;70.65
64961;SHT31;51487;52.266;10.542;2024-03-06T13:59:31;9.51;70.74
64961;SHT31;51487;52.266;10.542;2024-03-06T14:01:57;9.48;70.50
64961;SHT31;51487;52.266;10.542;2024-03-06T14:04:24;9.30;71.10
64961;SHT31;51487;52.266;10.542;2024-03-06T14:06:50;9.34;71.73
64961;SHT31;51487;52.266;10.542;2024-03-06T14:09:16;9.38;70.91
64961;SHT31;51487;52.266;10.542;2024-03-06T14:11:42;9.49;70.62
64961;SHT31;51487;52.266;10.542;2024-03-06T14:14:08;9.58;70.91
64961;SHT31;51487;52.266;10.542;2024-03-06T14:16:34;9.45;70.42
64961;SHT31;51487;52.266;10.542;2024-03-06T14:19:01;9.49;71.36
64961;SHT31;51487;52.266;10.542;2024-03-06T14:21:26;9.49;71.31
64961;SHT31;51487;52.266;10.542;2024-03-06T14:23:52;9.36;70.68
64961;SHT31;51487;52.266;10.542;2024-03-06T14:26:18;9.49;70.73
64961;SHT31;51487;52.266;10.542;2024-03-06T14:28:43;9.31;70.88
64961;SHT31;51487;52.266;10.542;2024-03-06T14:31:09;9.34;71.58
64961;SHT31;51487;52.266;10.542;2024-03-06T14:33:39;9.35;71.04
64961;SHT31;51487;52.266;10.542;2024-03-06T14:36:05;9.34;71.23
64961;SHT31;51487;52.266;10.542;2024-03-06T14:38:31;9.45;70.84
64961;SHT31;51487;52.266;10.542;2024-03-06T14:40:56;9.46;70.49
64961;SHT31;51487;52.266;10.542;2024-03-06T14:43:21;9.41;70.52
64961;SHT31;51487;52.266;10.542;2024-03-06T14:45:47;9.46;70.68
64961;SHT31;51487;52.266;10.542;2024-03-06T14:48:12;9.54;70.27
64961;SHT31;51487;52.266;10.542;2024-03-06T14:50:38;9.39;70.86
64961;SHT31;51487;52.266;10.542;2024-03-06T14:53:03;9.48;71.00
64961;SHT31;51487;52.266;10.542;2024-03-06T14:55:30;9.65;70.61
64961;SHT31;51487;52.266;10.542;2024-03-06T14:57:56;9.72;70.35
64961;SHT31;51487;52.266;10.542;2024-03-06T15:00:21;9.68;70.30
64961;SHT31;51487;52.266;10.542;2024-03-06T15:02:48;9.65;70.28
64961;SHT31;51487;52.266;10.542;2024-03-06T15:05:14;9.71;70.24
64961;SHT31;51487;52.266;10.542;2024-03-06T15:07:40;9.76;70.31
64961;SHT31;51487;52.266;10.542;2024-03-06T15:10:07;9.66;70.83
64961;SHT31;51487;52.266;10.542;2024-03-06T15:12:37;9.55;70.71
64961;SHT31;51487;52.266;10.542;2024-03-06T15:15:04;9.42;70.96
64961;SHT31;51487;52.266;10.542;2024-03-06T15:17:32;9.28;71.37
64961;SHT31;51487;52.266;10.542;2024-03-06T15:19:58;9.23;71.31
64961;SHT31;51487;52.266;10.542;2024-03-06T15:22:25;9.10;71.51
64961;SHT31;51487;52.266;10.542;2024-03-06T15:24:50;9.08;71.89
64961;SHT31;51487;52.266;10.542;2024-03-06T15:27:16;9.13;71.88
64961;SHT31;51487;52.266;10.542;2024-03-06T15:29:42;9.07;72.10
64961;SHT31;51487;52.266;10.542;2024-03-06T15:32:09;9.00;72.23
64961;SHT31;51487;52.266;10.542;2024-03-06T15:34:38;9.06;72.12
64961;SHT31;51487;52.266;10.542;2024-03-06T15:37:04;9.01;72.45
64961;SHT31;51487;52.266;10.542;2024-03-06T15:39:30;9.11;71.84
64961;SHT31;51487;52.266;10.542;2024-03-06T15:41:55;9.01;72.37
64961;SHT31;51487;52.266;10.542;2024-03-06T15:44:23;8.97;72.27